Time;durP1;ratioP1;P1;durP2;ratioP2;P2;SDS_P1;SDS_P2;PMS_P1;PMS_P2;Temp;Humidity;BMP_temperature;BMP_pressure;BME280_temperature;BME280_humidity;BME280_pressure;Samples;Min_cycle;Max_cycle;Signal;HPM_P1;HPM_P2
2023/12/22 00:01:26;;;;;;;3.28;1.08;;;9.50;99.90;;;;;;5010782;28;20085;-80
2023/12/22 00:03:53;;;;;;;4.97;1.10;;;9.50;99.90;;;;;;5014391;28;20056;-78
2023/12/22 00:06:20;;;;;;;4.22;1.45;;;9.50;99.90;;;;;;5016417;28;20042;-80
2023/12/22 00:08:46;;;;;;;6.82;1.13;;;9.50;99.90;;;;;;5011275;28;20513;-78
2023/12/22 00:11:13;;;;;;;3.70;0.90;;;9.50;99.90;;;;;;5016328;28;20102;-80
2023/12/22 00:13:40;;;;;;;6.38;1.48;;;9.50;99.90;;;;;;5010349;28;20070;-79
2023/12/22 00:16:07;;;;;;;5.40;1.30;;;9.50;99.90;;;;;;5020471;28;20046;-80
2023/12/22 00:18:34;;;;;;;6.68;1.40;;;9.50;99.90;;;;;;5007700;28;20047;-78
2023/12/22 00:21:00;;;;;;;6.30;1.88;;;9.60;99.90;;;;;;5022893;28;20048;-78
2023/12/22 00:23:27;;;;;;;3.55;1.63;;;9.50;99.90;;;;;;5010858;28;20104;-79
2023/12/22 00:25:54;;;;;;;4.70;1.35;;;9.60;99.90;;;;;;5021357;28;20045;-78
2023/12/22 00:28:21;;;;;;;4.90;2.00;;;9.50;99.90;;;;;;5015572;28;20095;-80
2023/12/22 00:30:47;;;;;;;14.15;5.03;;;9.50;99.90;;;;;;5015239;28;20053;-81
2023/12/22 00:33:14;;;;;;;11.18;4.50;;;9.50;99.90;;;;;;5011666;28;20088;-80
2023/12/22 00:35:41;;;;;;;7.32;2.75;;;9.50;99.90;;;;;;4994300;28;20502;-79
2023/12/22 00:38:08;;;;;;;39.17;17.25;;;9.50;99.90;;;;;;5014259;28;20077;-78
2023/12/22 00:40:34;;;;;;;11.02;3.70;;;9.40;99.90;;;;;;5015307;28;20134;-79
2023/12/22 00:43:01;;;;;;;10.05;3.03;;;9.40;99.90;;;;;;5011867;28;20038;-80
2023/12/22 00:45:28;;;;;;;7.00;2.22;;;9.40;99.90;;;;;;4996266;28;20042;-80
2023/12/22 00:47:55;;;;;;;5.63;1.50;;;9.40;99.90;;;;;;4999353;28;20050;-79
2023/12/22 00:50:21;;;;;;;6.63;1.42;;;9.40;99.90;;;;;;5005440;28;20475;-79
2023/12/22 00:52:48;;;;;;;4.90;1.70;;;9.30;99.90;;;;;;5000655;28;20053;-81
2023/12/22 00:55:15;;;;;;;9.63;2.35;;;9.30;99.90;;;;;;5007651;28;20054;-79
2023/12/22 00:57:42;;;;;;;5.13;1.20;;;9.30;99.90;;;;;;5016697;28;20054;-80
2023/12/22 01:00:12;;;;;;;7.65;1.40;;;9.30;99.90;;;;;;5008431;28;20041;-81
2023/12/22 01:02:39;;;;;;;5.20;1.35;;;9.30;99.90;;;;;;5013387;28;20073;-79
2023/12/22 01:05:06;;;;;;;11.68;1.50;;;9.30;99.90;;;;;;5006701;28;20077;-80
2023/12/22 01:07:33;;;;;;;9.65;1.35;;;9.30;99.90;;;;;;5011777;28;20110;-79
2023/12/22 01:10:01;;;;;;;3.97;1.40;;;9.30;99.90;;;;;;5012415;28;20045;-79
2023/12/22 01:12:28;;;;;;;5.35;1.33;;;9.30;99.90;;;;;;5015619;28;20099;-80
2023/12/22 01:14:56;;;;;;;6.75;1.17;;;9.30;99.90;;;;;;5014273;28;20045;-80
2023/12/22 01:17:23;;;;;;;6.97;1.45;;;9.20;99.90;;;;;;4997897;28;20046;-79
2023/12/22 01:19:51;;;;;;;6.90;1.90;;;9.20;99.90;;;;;;5012320;28;20070;-80
2023/12/22 01:22:18;;;;;;;2.97;1.30;;;9.30;99.90;;;;;;4988667;28;20582;-80
2023/12/22 01:24:45;;;;;;;5.07;1.40;;;9.20;99.90;;;;;;5018517;28;20466;-80
2023/12/22 01:27:12;;;;;;;4.78;1.15;;;9.20;99.90;;;;;;5008294;28;20422;-80
2023/12/22 01:29:39;;;;;;;3.78;1.10;;;9.20;99.90;;;;;;5007495;28;20054;-79
2023/12/22 01:32:06;;;;;;;5.82;1.20;;;9.10;99.90;;;;;;5008633;28;20489;-80
2023/12/22 01:34:33;;;;;;;6.25;1.30;;;9.10;99.90;;;;;;5012347;28;20077;-79
2023/12/22 01:36:59;;;;;;;5.30;1.25;;;9.10;99.90;;;;;;5011984;28;20041;-79
2023/12/22 01:39:26;;;;;;;19.33;9.82;;;9.20;99.90;;;;;;5014275;28;20073;-78
2023/12/22 01:41:53;;;;;;;7.82;1.40;;;9.20;99.90;;;;;;5012279;28;20047;-79
2023/12/22 01:44:19;;;;;;;8.10;1.80;;;9.20;99.90;;;;;;5009504;28;20104;-78
2023/12/22 01:46:46;;;;;;;8.55;1.88;;;9.20;99.90;;;;;;5010936;28;20052;-79
2023/12/22 01:49:14;;;;;;;6.93;1.60;;;9.20;99.90;;;;;;5010732;28;20053;-76
2023/12/22 01:51:42;;;;;;;7.35;1.85;;;9.20;99.90;;;;;;5004727;28;20046;-79
2023/12/22 01:54:10;;;;;;;7.45;1.95;;;9.20;99.90;;;;;;5009638;28;20097;-79
2023/12/22 01:56:37;;;;;;;8.30;1.70;;;9.20;99.90;;;;;;5008509;28;20054;-77
2023/12/22 01:59:04;;;;;;;2.78;1.67;;;9.30;99.90;;;;;;4998365;28;20081;-79
2023/12/22 02:01:32;;;;;;;8.82;1.50;;;9.30;99.90;;;;;;5008006;28;20088;-81
2023/12/22 02:04:00;;;;;;;6.18;1.60;;;9.30;99.90;;;;;;5007938;28;20053;-79
2023/12/22 02:06:29;;;;;;;7.95;1.58;;;9.30;99.90;;;;;;5008693;28;20458;-79
2023/12/22 02:08:58;;;;;;;8.73;1.67;;;9.30;99.90;;;;;;5009183;28;20125;-79
2023/12/22 02:11:24;;;;;;;3.65;1.20;;;9.30;99.90;;;;;;5014914;28;20049;-78
2023/12/22 02:13:51;;;;;;;9.15;2.45;;;9.20;99.90;;;;;;5007182;28;20086;-78
2023/12/22 02:16:44;;;;;;;6.75;1.63;;;9.20;99.90;;;;;;5011168;28;20065;-77
2023/12/22 02:19:42;;;;;;;3.75;1.50;;;9.30;99.90;;;;;;5015163;28;20050;-79
2023/12/22 02:22:10;;;;;;;5.05;1.25;;;9.20;99.90;;;;;;5003605;28;20387;-79
2023/12/22 02:24:37;;;;;;;2.63;1.33;;;9.20;99.90;;;;;;5003740;28;20137;-79
2023/12/22 02:27:26;;;;;;;4.88;1.50;;;9.20;99.90;;;;;;4997242;28;20061;-80
2023/12/22 02:30:02;;;;;;;2.85;1.10;;;9.20;99.90;;;;;;5011801;28;20502;-80
2023/12/22 02:32:34;;;;;;;5.10;1.15;;;9.10;99.90;;;;;;5003708;28;20101;-79
2023/12/22 02:35:04;;;;;;;8.60;1.63;;;9.10;99.90;;;;;;5011469;28;20133;-79
2023/12/22 02:37:34;;;;;;;8.15;1.70;;;9.10;99.90;;;;;;5009187;28;20429;-79
2023/12/22 02:40:02;;;;;;;5.05;1.17;;;9.10;99.90;;;;;;5007333;28;20528;-79
2023/12/22 02:42:30;;;;;;;5.28;1.20;;;9.10;99.90;;;;;;5006548;28;20105;-78
2023/12/22 02:44:58;;;;;;;7.22;1.80;;;9.10;99.90;;;;;;5014178;28;20057;-79
2023/12/22 02:47:27;;;;;;;5.50;1.30;;;9.10;99.90;;;;;;5017236;28;20072;-80
2023/12/22 02:49:54;;;;;;;7.40;1.40;;;9.10;99.90;;;;;;5009533;28;20134;-78
2023/12/22 02:52:21;;;;;;;6.13;1.38;;;9.10;99.90;;;;;;5020294;28;20544;-79
2023/12/22 02:54:48;;;;;;;4.22;1.85;;;9.10;99.90;;;;;;5009224;28;20050;-79
2023/12/22 02:57:14;;;;;;;6.78;1.50;;;9.10;99.90;;;;;;5015357;28;20054;-79
2023/12/22 02:59:41;;;;;;;9.48;1.70;;;9.20;99.90;;;;;;5007119;28;20050;-79
2023/12/22 03:02:08;;;;;;;5.97;1.75;;;9.10;99.90;;;;;;5002376;28;20129;-79
2023/12/22 03:04:34;;;;;;;5.80;1.08;;;9.20;99.90;;;;;;5013577;28;20100;-78
2023/12/22 03:07:01;;;;;;;6.22;2.08;;;9.10;99.90;;;;;;5000337;28;20046;-79
2023/12/22 03:09:28;;;;;;;8.07;1.40;;;9.10;99.90;;;;;;4996614;28;20080;-79
2023/12/22 03:11:57;;;;;;;3.50;1.00;;;9.10;99.90;;;;;;5009357;28;20082;-79
2023/12/22 03:14:23;;;;;;;6.40;1.40;;;9.10;99.90;;;;;;5012485;28;20109;-79
2023/12/22 03:16:50;;;;;;;4.70;1.40;;;9.10;99.90;;;;;;5010978;28;20054;-79
2023/12/22 03:19:17;;;;;;;7.50;1.65;;;9.10;99.90;;;;;;5015873;28;20091;-80
2023/12/22 03:21:43;;;;;;;4.43;1.27;;;9.10;99.90;;;;;;5008435;28;20051;-81
2023/12/22 03:24:10;;;;;;;5.97;1.38;;;9.10;99.90;;;;;;5018005;28;20473;-79
2023/12/22 03:26:37;;;;;;;3.95;1.30;;;9.10;99.90;;;;;;5007113;28;20046;-77
2023/12/22 03:29:03;;;;;;;5.05;1.17;;;9.10;99.90;;;;;;5017443;28;20129;-80
2023/12/22 03:31:30;;;;;;;3.30;1.10;;;9.10;99.90;;;;;;5012197;28;20099;-80
2023/12/22 03:33:57;;;;;;;5.97;2.00;;;9.10;99.90;;;;;;5015361;28;20138;-79
2023/12/22 03:36:24;;;;;;;13.90;6.47;;;9.10;99.90;;;;;;5000626;28;20509;-78
2023/12/22 03:38:51;;;;;;;4.60;1.30;;;9.10;99.90;;;;;;5015373;28;20062;-79
2023/12/22 03:41:17;;;;;;;6.32;1.88;;;9.10;99.90;;;;;;5006175;28;20531;-78
2023/12/22 03:43:44;;;;;;;5.00;1.70;;;9.10;99.90;;;;;;5011094;28;20131;-77
2023/12/22 03:46:11;;;;;;;12.77;6.82;;;9.10;99.90;;;;;;5015173;28;20079;-79
2023/12/22 03:48:37;;;;;;;7.88;2.47;;;9.20;99.90;;;;;;4992187;28;20049;-79
2023/12/22 03:51:04;;;;;;;6.93;3.17;;;9.10;99.90;;;;;;5013665;28;20089;-79
2023/12/22 03:53:31;;;;;;;6.57;2.15;;;9.20;99.90;;;;;;4995922;28;20054;-79
2023/12/22 03:55:57;;;;;;;5.45;1.17;;;9.10;99.90;;;;;;5017140;28;20089;-79
2023/12/22 03:58:26;;;;;;;2.13;1.10;;;9.10;99.90;;;;;;4989225;28;20092;-77
2023/12/22 04:00:52;;;;;;;7.82;1.35;;;9.10;99.90;;;;;;5016485;28;20153;-77
2023/12/22 04:03:19;;;;;;;8.13;1.70;;;9.10;99.90;;;;;;5012246;28;20045;-77
2023/12/22 04:05:46;;;;;;;6.15;1.88;;;9.10;99.90;;;;;;5015944;28;20072;-77
2023/12/22 04:08:13;;;;;;;6.38;1.60;;;9.00;99.90;;;;;;5011284;28;20042;-78
2023/12/22 04:10:39;;;;;;;8.32;1.83;;;9.00;99.90;;;;;;4998573;28;20100;-78
2023/12/22 04:13:06;;;;;;;8.30;1.30;;;9.00;99.90;;;;;;5009569;28;20079;-78
2023/12/22 04:15:33;;;;;;;5.93;1.38;;;8.90;99.90;;;;;;4994165;28;20050;-77
2023/12/22 04:18:00;;;;;;;5.80;1.33;;;8.90;99.90;;;;;;4997558;28;20103;-78
2023/12/22 04:20:26;;;;;;;7.88;1.98;;;8.80;99.90;;;;;;4992391;28;20084;-77
2023/12/22 04:22:53;;;;;;;6.40;1.88;;;8.80;99.90;;;;;;5012496;28;20052;-77
2023/12/22 04:25:21;;;;;;;7.57;1.48;;;8.80;99.90;;;;;;5011064;28;20461;-77
2023/12/22 04:27:49;;;;;;;8.38;1.75;;;8.80;99.90;;;;;;5014870;28;20072;-79
2023/12/22 04:30:16;;;;;;;10.93;2.92;;;8.80;99.90;;;;;;4990036;28;20038;-77
2023/12/22 04:32:43;;;;;;;6.47;1.73;;;8.70;99.90;;;;;;5014215;28;20069;-77
2023/12/22 04:35:10;;;;;;;6.15;1.33;;;8.70;99.90;;;;;;5010031;28;20054;-77
2023/12/22 04:37:36;;;;;;;5.82;1.52;;;8.80;99.90;;;;;;5017267;28;20466;-77
2023/12/22 04:40:03;;;;;;;10.05;2.25;;;8.80;99.90;;;;;;5016905;28;20049;-77
2023/12/22 04:42:30;;;;;;;7.93;1.83;;;8.70;99.90;;;;;;5015644;28;20045;-77
2023/12/22 04:44:57;;;;;;;5.93;1.55;;;8.70;99.90;;;;;;5005905;28;20073;-77
2023/12/22 04:47:24;;;;;;;8.77;1.70;;;8.70;99.90;;;;;;5014884;28;20045;-77
2023/12/22 04:49:51;;;;;;;10.60;2.10;;;8.70;99.90;;;;;;5014472;28;20104;-77
2023/12/22 04:52:17;;;;;;;9.23;1.77;;;8.70;99.90;;;;;;5012043;28;20497;-77
2023/12/22 04:54:44;;;;;;;13.10;2.40;;;8.70;99.90;;;;;;5008778;28;20054;-77
2023/12/22 04:57:11;;;;;;;10.02;2.17;;;8.70;99.90;;;;;;5011853;28;20081;-79
2023/12/22 04:59:40;;;;;;;14.82;2.05;;;8.70;99.90;;;;;;5014083;28;20053;-77
2023/12/22 05:02:07;;;;;;;9.07;2.00;;;8.70;99.90;;;;;;4987991;28;20069;-78
2023/12/22 05:04:34;;;;;;;11.95;2.50;;;8.70;99.90;;;;;;5009271;28;20077;-77
2023/12/22 05:07:01;;;;;;;9.88;2.40;;;8.70;99.90;;;;;;4992162;28;20051;-77
2023/12/22 05:09:28;;;;;;;12.38;2.67;;;8.60;99.90;;;;;;5018838;28;20049;-78
2023/12/22 05:11:55;;;;;;;18.10;4.10;;;8.60;99.90;;;;;;5005980;28;20043;-77
2023/12/22 05:14:21;;;;;;;9.48;2.05;;;8.60;99.90;;;;;;5017961;28;20045;-79
2023/12/22 05:16:48;;;;;;;18.13;3.35;;;8.60;99.90;;;;;;5004444;28;20046;-77
2023/12/22 05:19:15;;;;;;;14.43;2.65;;;8.60;99.90;;;;;;5020946;28;20475;-77
2023/12/22 05:21:42;;;;;;;17.13;2.95;;;8.60;99.90;;;;;;5010272;28;20581;-78
2023/12/22 05:24:08;;;;;;;11.18;2.53;;;8.60;99.90;;;;;;5012080;28;20117;-77
2023/12/22 05:26:35;;;;;;;12.77;2.75;;;8.60;99.90;;;;;;5012211;28;20091;-79
2023/12/22 05:29:02;;;;;;;14.60;3.22;;;8.60;99.90;;;;;;5015362;28;20085;-76
2023/12/22 05:31:30;;;;;;;12.80;3.13;;;8.60;99.90;;;;;;5014519;28;20049;-77
2023/12/22 05:33:58;;;;;;;17.50;2.58;;;8.70;99.90;;;;;;4995852;28;20117;-77
2023/12/22 05:36:25;;;;;;;11.63;2.63;;;8.70;99.90;;;;;;4997336;28;20497;-77
2023/12/22 05:38:52;;;;;;;13.20;3.40;;;8.60;99.90;;;;;;5006967;28;20054;-77
2023/12/22 05:41:19;;;;;;;16.30;3.08;;;8.60;99.90;;;;;;5000068;28;20488;-77
2023/12/22 05:43:45;;;;;;;15.57;2.80;;;8.60;99.90;;;;;;5006458;28;20093;-76
2023/12/22 05:46:12;;;;;;;14.82;2.53;;;8.60;99.90;;;;;;5015841;28;20410;-77
2023/12/22 05:48:39;;;;;;;15.02;2.80;;;8.60;99.90;;;;;;5017979;28;20080;-79
2023/12/22 05:51:09;;;;;;;17.45;3.60;;;8.50;99.90;;;;;;4999854;28;20426;-79
2023/12/22 05:53:36;;;;;;;10.80;3.10;;;8.50;99.90;;;;;;5010134;28;20136;-79
2023/12/22 05:56:03;;;;;;;14.13;2.72;;;8.50;99.90;;;;;;5014926;28;20050;-76
2023/12/22 05:58:30;;;;;;;9.20;2.30;;;8.50;99.90;;;;;;5007359;28;20054;-77
2023/12/22 06:00:56;;;;;;;12.23;2.60;;;8.50;99.90;;;;;;5012686;28;20102;-77
2023/12/22 06:03:23;;;;;;;13.23;2.58;;;8.50;99.90;;;;;;5008116;28;20183;-78
2023/12/22 06:05:50;;;;;;;11.32;2.65;;;8.50;99.90;;;;;;4997910;28;20128;-79
2023/12/22 06:08:17;;;;;;;10.82;2.53;;;8.50;99.90;;;;;;5013985;28;20095;-77
2023/12/22 06:10:44;;;;;;;17.40;3.40;;;8.50;99.90;;;;;;5008073;28;20042;-77
2023/12/22 06:13:11;;;;;;;10.77;2.75;;;8.50;99.90;;;;;;5010573;28;20050;-77
2023/12/22 06:15:38;;;;;;;18.27;4.68;;;8.50;99.90;;;;;;5010815;28;20061;-79
2023/12/22 06:18:04;;;;;;;17.25;4.03;;;8.50;99.90;;;;;;5018503;28;20088;-77
2023/12/22 06:20:31;;;;;;;13.27;3.15;;;8.50;99.90;;;;;;5011695;28;20050;-78
2023/12/22 06:22:58;;;;;;;18.30;4.05;;;8.50;99.90;;;;;;5016897;28;20042;-77
2023/12/22 06:25:25;;;;;;;12.35;3.10;;;8.50;99.90;;;;;;5019308;28;20525;-79
2023/12/22 06:27:51;;;;;;;17.38;3.38;;;8.50;99.90;;;;;;5002983;28;20046;-76
2023/12/22 06:30:18;;;;;;;16.75;4.07;;;8.50;99.90;;;;;;5012354;28;20137;-77
2023/12/22 06:32:45;;;;;;;12.88;3.05;;;8.50;99.90;;;;;;5018949;28;20517;-77
2023/12/22 06:35:11;;;;;;;11.52;2.70;;;8.40;99.90;;;;;;5010257;28;20470;-77
2023/12/22 06:37:43;;;;;;;17.50;2.85;;;8.40;99.90;;;;;;5015369;28;20068;-78
2023/12/22 06:40:10;;;;;;;15.15;2.70;;;8.40;99.90;;;;;;4996809;28;20053;-77
2023/12/22 06:42:38;;;;;;;13.43;2.85;;;8.30;99.90;;;;;;4994849;28;20082;-78
2023/12/22 06:45:05;;;;;;;13.48;2.83;;;8.30;99.90;;;;;;5014670;28;20103;-76
2023/12/22 06:47:32;;;;;;;13.40;2.47;;;8.30;99.90;;;;;;5014394;28;20046;-77
2023/12/22 06:49:59;;;;;;;10.18;2.10;;;8.30;99.90;;;;;;5015821;28;20045;-78
2023/12/22 06:52:26;;;;;;;12.07;2.65;;;8.30;99.90;;;;;;5009249;28;20050;-78
2023/12/22 06:54:54;;;;;;;10.38;2.63;;;8.30;99.90;;;;;;5015520;28;20056;-77
2023/12/22 06:57:20;;;;;;;15.77;2.72;;;8.20;99.90;;;;;;5010998;28;20110;-77
2023/12/22 06:59:49;;;;;;;21.17;3.03;;;8.20;99.90;;;;;;5013928;28;20057;-77
2023/12/22 07:02:17;;;;;;;12.20;2.45;;;8.20;99.90;;;;;;5012458;28;20054;-77
2023/12/22 07:05:20;;;;;;;8.95;3.72;;;8.30;99.90;;;;;;5016866;28;20037;-77
2023/12/22 07:07:47;;;;;;;16.70;3.15;;;8.30;99.90;;;;;;5019335;28;20071;-79
2023/12/22 07:10:15;;;;;;;14.80;2.60;;;8.30;99.90;;;;;;5019441;28;20474;-77
2023/12/22 07:12:41;;;;;;;12.05;4.18;;;8.30;99.90;;;;;;5011375;28;20046;-77
2023/12/22 07:15:10;;;;;;;11.48;2.75;;;8.30;99.90;;;;;;4999533;28;20104;-77
2023/12/22 07:17:37;;;;;;;12.88;2.70;;;8.30;99.90;;;;;;5019154;28;20045;-78
2023/12/22 07:20:04;;;;;;;10.20;2.75;;;8.20;99.90;;;;;;4994709;28;20125;-79
2023/12/22 07:22:31;;;;;;;13.02;2.47;;;8.20;99.90;;;;;;5015610;28;20049;-77
2023/12/22 07:24:58;;;;;;;11.75;2.65;;;8.20;99.90;;;;;;5009387;28;20125;-77
2023/12/22 07:27:25;;;;;;;12.98;2.78;;;8.20;99.90;;;;;;5019897;28;20091;-76
2023/12/22 07:29:54;;;;;;;16.30;3.42;;;8.20;99.90;;;;;;5006508;28;20125;-77
2023/12/22 07:32:20;;;;;;;13.30;2.63;;;8.20;99.90;;;;;;5000433;28;20133;-77
2023/12/22 07:34:47;;;;;;;15.52;3.22;;;8.20;99.90;;;;;;5012231;28;20045;-77
2023/12/22 07:37:14;;;;;;;12.48;2.83;;;8.20;99.90;;;;;;5015280;28;20053;-77
2023/12/22 07:39:41;;;;;;;15.55;3.13;;;8.20;99.90;;;;;;5010397;28;20493;-79
2023/12/22 07:42:08;;;;;;;17.67;3.38;;;8.20;99.90;;;;;;5012807;28;20105;-77
2023/12/22 07:44:35;;;;;;;13.13;2.70;;;8.20;99.90;;;;;;5014148;28;20037;-78
2023/12/22 07:47:02;;;;;;;10.13;2.58;;;8.20;99.90;;;;;;5011278;28;20046;-79
2023/12/22 07:49:29;;;;;;;12.30;2.65;;;8.20;99.90;;;;;;5014826;28;20041;-78
2023/12/22 07:51:58;;;;;;;15.80;3.58;;;8.20;99.90;;;;;;5021358;28;20069;-78
2023/12/22 07:54:25;;;;;;;14.00;2.90;;;8.20;99.90;;;;;;5014902;28;20046;-80
2023/12/22 07:56:52;;;;;;;13.68;2.97;;;8.20;99.90;;;;;;5009632;28;20128;-79
2023/12/22 07:59:19;;;;;;;13.48;2.60;;;8.20;99.90;;;;;;5018033;28;20554;-78
2023/12/22 08:01:57;;;;;;;11.57;2.90;;;8.20;99.90;;;;;;4997706;28;20417;-78
2023/12/22 08:04:23;;;;;;;10.50;2.38;;;8.20;99.90;;;;;;5017284;28;20050;-79
2023/12/22 08:06:51;;;;;;;16.27;3.10;;;8.20;99.90;;;;;;5012153;28;20056;-79
2023/12/22 08:09:19;;;;;;;17.42;2.67;;;8.20;99.90;;;;;;4996900;28;20494;-79
2023/12/22 08:11:46;;;;;;;9.38;2.45;;;8.30;99.90;;;;;;5011318;28;20100;-79
2023/12/22 08:14:13;;;;;;;18.63;3.70;;;8.30;99.90;;;;;;4997312;28;20046;-79
2023/12/22 08:16:40;;;;;;;18.25;3.67;;;8.20;99.90;;;;;;4999780;28;20095;-80
2023/12/22 08:19:07;;;;;;;19.90;3.65;;;8.30;99.90;;;;;;4996394;28;20046;-79
2023/12/22 08:21:34;;;;;;;10.77;3.35;;;8.30;99.90;;;;;;5005060;28;20063;-82
2023/12/22 08:24:12;;;;;;;12.48;3.00;;;8.30;99.90;;;;;;4999437;28;20057;-79
2023/12/22 08:26:48;;;;;;;15.10;2.92;;;8.30;99.90;;;;;;5014048;28;20486;-79
2023/12/22 08:29:16;;;;;;;10.23;4.20;;;8.30;99.90;;;;;;5001796;28;20046;-79
2023/12/22 08:31:45;;;;;;;7.05;2.50;;;8.30;99.90;;;;;;4996462;28;20049;-79
2023/12/22 08:34:12;;;;;;;12.18;2.63;;;8.30;99.90;;;;;;5004299;28;20046;-78
2023/12/22 08:36:39;;;;;;;12.82;4.32;;;8.30;99.90;;;;;;5000678;28;20054;-79
2023/12/22 08:39:07;;;;;;;7.63;2.38;;;8.40;99.90;;;;;;5010396;28;20045;-79
2023/12/22 08:41:37;;;;;;;17.08;3.15;;;8.40;99.90;;;;;;4992872;28;20045;-79
2023/12/22 08:44:05;;;;;;;13.43;3.20;;;8.30;99.90;;;;;;5008912;28;20046;-79
2023/12/22 08:46:32;;;;;;;15.18;3.38;;;8.40;99.90;;;;;;5018957;28;20490;-79
2023/12/22 08:48:59;;;;;;;16.73;3.80;;;8.40;99.90;;;;;;5013024;28;20046;-80
2023/12/22 08:51:27;;;;;;;13.68;3.00;;;8.40;99.90;;;;;;5011230;28;20097;-79
2023/12/22 08:53:54;;;;;;;14.82;3.00;;;8.40;99.90;;;;;;5009418;28;20056;-79
2023/12/22 08:56:25;;;;;;;19.08;3.10;;;8.40;99.90;;;;;;5009308;28;20050;-79
2023/12/22 08:58:54;;;;;;;18.00;3.30;;;8.40;99.90;;;;;;5012091;28;20046;-79
2023/12/22 09:01:22;;;;;;;13.90;3.40;;;8.50;99.90;;;;;;5007306;28;20050;-79
2023/12/22 09:03:49;;;;;;;13.98;2.90;;;8.50;99.90;;;;;;5009012;28;20100;-79
2023/12/22 09:06:17;;;;;;;13.77;2.58;;;8.50;99.90;;;;;;5006585;28;20100;-80
2023/12/22 09:08:44;;;;;;;10.18;3.10;;;8.50;99.90;;;;;;5001649;28;20428;-80
2023/12/22 09:11:12;;;;;;;14.77;4.18;;;8.50;99.90;;;;;;5003993;28;20050;-79
2023/12/22 09:13:39;;;;;;;14.95;3.05;;;8.50;99.90;;;;;;5011495;28;20139;-79
2023/12/22 09:16:09;;;;;;;12.02;2.45;;;8.50;99.90;;;;;;5008287;28;20045;-80
2023/12/22 09:18:36;;;;;;;9.52;2.58;;;8.50;99.90;;;;;;5010153;28;20100;-79
2023/12/22 09:21:03;;;;;;;9.18;2.22;;;8.50;99.90;;;;;;5010258;28;20046;-80
2023/12/22 09:23:31;;;;;;;15.05;3.40;;;8.50;99.90;;;;;;5008908;28;20046;-79
2023/12/22 09:25:58;;;;;;;9.02;2.67;;;8.60;99.90;;;;;;5014317;28;20056;-79
2023/12/22 09:28:25;;;;;;;13.77;2.58;;;8.60;99.90;;;;;;5007928;28;20042;-78
2023/12/22 09:30:52;;;;;;;14.95;2.80;;;8.60;99.90;;;;;;5001244;28;20457;-79
2023/12/22 09:33:19;;;;;;;12.75;2.80;;;8.60;99.90;;;;;;5006854;28;20042;-79
2023/12/22 09:35:46;;;;;;;11.43;2.90;;;8.60;99.90;;;;;;5012914;28;20079;-80
2023/12/22 09:38:12;;;;;;;8.45;2.25;;;8.60;99.90;;;;;;5009419;28;20086;-80
2023/12/22 09:40:39;;;;;;;12.63;2.78;;;8.60;99.90;;;;;;5020363;28;20120;-79
2023/12/22 09:43:08;;;;;;;10.95;2.25;;;8.60;99.90;;;;;;5009441;28;20073;-79
2023/12/22 09:45:36;;;;;;;20.83;2.90;;;8.70;99.90;;;;;;5019950;28;20056;-79
2023/12/22 09:48:05;;;;;;;11.68;2.08;;;8.60;99.90;;;;;;4999241;28;20045;-79
2023/12/22 09:50:33;;;;;;;13.13;2.25;;;8.60;99.90;;;;;;5011182;28;20042;-80
2023/12/22 09:53:02;;;;;;;12.80;2.35;;;8.60;99.90;;;;;;5009137;28;20115;-79
2023/12/22 09:55:34;;;;;;;20.67;3.00;;;8.60;99.90;;;;;;4997219;28;20050;-79
2023/12/22 09:58:02;;;;;;;8.52;2.25;;;8.60;99.90;;;;;;5015415;28;20066;-79
2023/12/22 10:00:31;;;;;;;8.60;1.75;;;8.60;99.90;;;;;;4996855;28;20097;-79
2023/12/22 10:02:58;;;;;;;8.25;2.97;;;8.70;99.90;;;;;;5002503;28;20422;-79
2023/12/22 10:05:25;;;;;;;12.63;2.00;;;8.70;99.90;;;;;;5008087;28;20137;-78
2023/12/22 10:07:52;;;;;;;9.48;2.30;;;8.70;99.90;;;;;;5020285;28;20049;-77
2023/12/22 10:10:21;;;;;;;12.82;2.83;;;8.70;99.90;;;;;;4997592;28;20054;-79
2023/12/22 10:12:50;;;;;;;12.48;2.42;;;8.70;99.90;;;;;;5019104;28;20042;-78
2023/12/22 10:15:18;;;;;;;12.98;3.00;;;8.70;99.90;;;;;;5008133;28;20078;-78
2023/12/22 10:17:45;;;;;;;6.72;2.40;;;8.70;99.90;;;;;;5021952;28;20092;-80
2023/12/22 10:20:12;;;;;;;8.75;2.30;;;8.80;99.90;;;;;;5009503;28;20046;-78
2023/12/22 10:22:38;;;;;;;10.07;3.10;;;8.70;99.90;;;;;;5015419;28;20132;-78
2023/12/22 10:25:07;;;;;;;12.85;3.42;;;8.70;99.90;;;;;;5009615;28;20100;-78
2023/12/22 10:27:36;;;;;;;9.40;2.38;;;8.80;99.90;;;;;;5010934;28;20045;-78
2023/12/22 10:30:03;;;;;;;14.80;2.67;;;8.80;99.90;;;;;;5013513;28;20042;-77
2023/12/22 10:32:30;;;;;;;12.25;2.42;;;8.80;99.90;;;;;;5005618;28;20101;-78
2023/12/22 10:34:57;;;;;;;6.50;2.03;;;8.90;99.90;;;;;;5017801;28;20050;-77
2023/12/22 10:37:24;;;;;;;14.00;2.42;;;8.80;99.90;;;;;;5004868;28;20050;-78
2023/12/22 10:39:54;;;;;;;10.40;2.40;;;8.80;99.90;;;;;;5019115;28;20425;-77
2023/12/22 10:42:21;;;;;;;9.27;2.30;;;8.80;99.90;;;;;;5009071;28;20054;-79
2023/12/22 10:44:49;;;;;;;6.07;1.67;;;8.90;99.90;;;;;;5015685;28;20095;-78
2023/12/22 10:47:21;;;;;;;9.00;2.10;;;8.80;99.90;;;;;;4993232;28;20039;-77
2023/12/22 10:49:48;;;;;;;8.63;2.20;;;8.80;99.90;;;;;;5013593;28;20479;-77
2023/12/22 10:52:18;;;;;;;7.55;2.67;;;8.80;99.90;;;;;;5009513;28;20054;-77
2023/12/22 10:54:45;;;;;;;4.70;1.80;;;8.90;99.90;;;;;;5007847;28;20524;-76
2023/12/22 10:57:12;;;;;;;7.55;1.95;;;8.90;99.90;;;;;;5009986;28;20073;-79
2023/12/22 10:59:45;;;;;;;9.75;1.80;;;8.90;99.90;;;;;;4994349;28;20501;-77
2023/12/22 11:02:28;;;;;;;6.10;1.90;;;8.90;99.90;;;;;;5001012;28;20073;-77
2023/12/22 11:05:08;;;;;;;9.18;2.25;;;8.90;99.90;;;;;;5010736;28;20057;-77
2023/12/22 11:07:37;;;;;;;5.47;1.70;;;8.90;99.90;;;;;;5013954;28;20117;-77
2023/12/22 11:10:08;;;;;;;11.55;2.30;;;9.00;99.90;;;;;;5013022;28;20115;-77
2023/12/22 11:12:36;;;;;;;6.80;1.90;;;9.00;99.90;;;;;;5017922;28;20447;-78
2023/12/22 11:15:07;;;;;;;10.10;2.08;;;9.00;99.90;;;;;;5000641;28;20409;-78
2023/12/22 11:17:36;;;;;;;6.82;1.85;;;9.10;99.90;;;;;;5015788;28;20062;-78
2023/12/22 11:20:04;;;;;;;7.32;1.67;;;9.10;99.90;;;;;;5011275;28;20176;-77
2023/12/22 11:22:32;;;;;;;5.47;1.17;;;9.10;99.90;;;;;;5008484;28;20460;-77
2023/12/22 11:25:02;;;;;;;5.22;1.35;;;9.10;99.90;;;;;;5016966;28;20072;-78
2023/12/22 11:27:29;;;;;;;2.63;1.23;;;9.10;99.90;;;;;;5017697;28;20429;-78
2023/12/22 11:29:58;;;;;;;2.25;1.02;;;9.20;99.90;;;;;;5016720;28;20041;-77
2023/12/22 11:32:26;;;;;;;4.30;1.50;;;9.20;99.90;;;;;;4996713;28;20046;-77
2023/12/22 11:34:54;;;;;;;3.15;1.08;;;9.20;99.90;;;;;;5020239;28;20041;-79
2023/12/22 11:37:21;;;;;;;6.10;1.00;;;9.30;99.90;;;;;;5007636;28;20046;-78
2023/12/22 11:39:48;;;;;;;6.85;1.20;;;9.30;99.90;;;;;;5015522;28;20056;-79
2023/12/22 11:42:18;;;;;;;3.45;0.98;;;9.30;99.90;;;;;;4997622;28;20096;-77
2023/12/22 11:44:45;;;;;;;3.28;0.98;;;9.30;99.90;;;;;;5023546;28;20410;-78
2023/12/22 11:47:14;;;;;;;3.92;1.00;;;9.40;99.90;;;;;;5014217;28;20050;-77
2023/12/22 11:49:41;;;;;;;2.13;0.88;;;9.30;99.90;;;;;;5015981;28;20042;-79
2023/12/22 11:52:11;;;;;;;5.00;0.90;;;9.30;99.90;;;;;;5011909;28;20413;-80
2023/12/22 11:54:52;;;;;;;3.47;1.25;;;9.30;99.90;;;;;;5015462;28;20061;-79
2023/12/22 11:57:31;;;;;;;1.85;0.82;;;9.30;99.90;;;;;;5015789;28;20080;-80
2023/12/22 12:00:02;;;;;;;2.65;1.00;;;9.40;99.90;;;;;;5007250;28;20053;-78
2023/12/22 12:02:30;;;;;;;1.98;0.90;;;9.40;99.90;;;;;;5022947;28;20069;-80
2023/12/22 12:04:59;;;;;;;1.30;0.77;;;9.40;99.90;;;;;;5015408;28;20046;-76
2023/12/22 12:07:39;;;;;;;1.42;0.70;;;9.40;99.90;;;;;;5013960;28;20137;-80
2023/12/22 12:10:10;;;;;;;2.08;0.95;;;9.40;99.90;;;;;;5006027;28;20146;-80
2023/12/22 12:12:38;;;;;;;1.90;0.73;;;9.40;99.90;;;;;;5021632;28;20046;-78
2023/12/22 12:15:10;;;;;;;1.58;0.98;;;9.40;99.90;;;;;;5012785;28;20045;-77
2023/12/22 12:17:41;;;;;;;1.42;0.70;;;9.40;99.90;;;;;;5014939;28;20050;-80
2023/12/22 12:20:10;;;;;;;1.02;0.60;;;9.40;99.90;;;;;;5016361;28;20060;-77
2023/12/22 12:22:41;;;;;;;1.23;0.70;;;9.40;99.90;;;;;;4999207;28;20054;-79
2023/12/22 12:25:10;;;;;;;2.50;0.80;;;9.40;99.90;;;;;;5017847;28;20042;-78
2023/12/22 12:28:01;;;;;;;1.50;0.60;;;9.50;99.90;;;;;;5007710;28;20041;-79
2023/12/22 12:30:28;;;;;;;0.90;0.52;;;9.40;99.90;;;;;;5023411;28;20062;-78
2023/12/22 12:33:08;;;;;;;2.38;0.95;;;9.40;99.90;;;;;;5023055;28;20041;-77
2023/12/22 12:35:37;;;;;;;1.70;0.60;;;9.50;99.90;;;;;;5008164;28;20077;-77
2023/12/22 12:38:10;;;;;;;1.05;0.55;;;9.50;99.90;;;;;;5015507;28;20057;-80
2023/12/22 12:40:40;;;;;;;0.88;0.43;;;9.50;99.90;;;;;;5016856;28;20471;-79
2023/12/22 12:43:07;;;;;;;1.10;0.60;;;9.50;99.90;;;;;;5026884;28;20053;-77
2023/12/22 12:45:34;;;;;;;1.90;0.95;;;9.60;99.90;;;;;;5022066;28;20476;-79
2023/12/22 12:48:02;;;;;;;1.55;0.85;;;9.60;99.90;;;;;;5017850;28;20099;-77
2023/12/22 12:50:33;;;;;;;0.70;0.60;;;9.70;99.90;;;;;;5008691;28;20047;-80
2023/12/22 12:53:00;;;;;;;1.30;0.93;;;9.70;99.90;;;;;;5020174;28;20052;-79
2023/12/22 12:55:27;;;;;;;0.60;0.60;;;9.70;99.90;;;;;;5005191;28;20120;-79
2023/12/22 12:57:55;;;;;;;2.10;0.75;;;9.70;99.90;;;;;;5021564;28;20052;-81